sensor_id;sensor_type;location;lat;lon;timestamp;pressure;altitude;pressure_sealevel;temperature;humidity
57600;BME280;43426;43.594;24.334;2023-02-18T00:02:08;101823.88;;;0.57;84.50
57600;BME280;43426;43.594;24.334;2023-02-18T00:04:33;101823.75;;;0.42;85.09
57600;BME280;43426;43.594;24.334;2023-02-18T00:06:59;101824.38;;;0.47;84.98
57600;BME280;43426;43.594;24.334;2023-02-18T00:09:24;101799.56;;;0.31;85.10
57600;BME280;43426;43.594;24.334;2023-02-18T00:11:50;101798.22;;;0.22;86.85
57600;BME280;43426;43.594;24.334;2023-02-18T00:14:16;101824.31;;;0.49;87.31
57600;BME280;43426;43.594;24.334;2023-02-18T00:16:43;101792.44;;;0.31;87.40
57600;BME280;43426;43.594;24.334;2023-02-18T00:19:15;101825.06;;;0.51;87.28
57600;BME280;43426;43.594;24.334;2023-02-18T00:21:42;101798.38;;;0.37;87.22
57600;BME280;43426;43.594;24.334;2023-02-18T00:24:09;101817.28;;;0.48;87.89
57600;BME280;43426;43.594;24.334;2023-02-18T00:26:36;101812.50;;;0.55;87.87
57600;BME280;43426;43.594;24.334;2023-02-18T00:29:02;101809.84;;;0.55;87.43
57600;BME280;43426;43.594;24.334;2023-02-18T00:31:35;101804.53;;;0.55;87.67
57600;BME280;43426;43.594;24.334;2023-02-18T00:34:04;101801.53;;;0.61;87.87
57600;BME280;43426;43.594;24.334;2023-02-18T00:36:30;101800.63;;;0.62;87.34
57600;BME280;43426;43.594;24.334;2023-02-18T00:39:00;101801.53;;;0.61;86.57
57600;BME280;43426;43.594;24.334;2023-02-18T00:41:27;101801.41;;;0.46;87.15
57600;BME280;43426;43.594;24.334;2023-02-18T00:43:53;101808.16;;;0.36;87.40
57600;BME280;43426;43.594;24.334;2023-02-18T00:46:19;101751.59;;;0.16;86.34
57600;BME280;43426;43.594;24.334;2023-02-18T00:48:45;101798.31;;;0.38;85.75
57600;BME280;43426;43.594;24.334;2023-02-18T00:51:11;101801.66;;;0.24;86.98
57600;BME280;43426;43.594;24.334;2023-02-18T00:53:37;101797.59;;;0.17;87.92
57600;BME280;43426;43.594;24.334;2023-02-18T00:56:03;101751.22;;;0.07;88.46
57600;BME280;43426;43.594;24.334;2023-02-18T00:58:28;101760.63;;;0.14;88.10
57600;BME280;43426;43.594;24.334;2023-02-18T01:00:54;101756.84;;;0.01;88.36
57600;BME280;43426;43.594;24.334;2023-02-18T01:03:20;101775.50;;;0.16;88.39
57600;BME280;43426;43.594;24.334;2023-02-18T01:05:47;101760.19;;;0.04;88.74
57600;BME280;43426;43.594;24.334;2023-02-18T01:08:14;101777.63;;;0.10;88.97
57600;BME280;43426;43.594;24.334;2023-02-18T01:10:42;101766.44;;;0.21;88.66
57600;BME280;43426;43.594;24.334;2023-02-18T01:13:10;101769.56;;;0.29;88.58
57600;BME280;43426;43.594;24.334;2023-02-18T01:15:37;101757.31;;;0.26;88.42
57600;BME280;43426;43.594;24.334;2023-02-18T01:18:03;101760.38;;;0.19;87.87
57600;BME280;43426;43.594;24.334;2023-02-18T01:20:29;101732.75;;;-0.12;88.50
57600;BME280;43426;43.594;24.334;2023-02-18T01:22:54;101755.69;;;0.06;89.41
57600;BME280;43426;43.594;24.334;2023-02-18T01:25:20;101749.44;;;0.07;90.09
57600;BME280;43426;43.594;24.334;2023-02-18T01:27:45;101717.97;;;-0.01;90.00
57600;BME280;43426;43.594;24.334;2023-02-18T01:30:14;101743.81;;;0.13;90.73
57600;BME280;43426;43.594;24.334;2023-02-18T01:32:40;101705.97;;;0.10;89.60
57600;BME280;43426;43.594;24.334;2023-02-18T01:35:06;101703.72;;;0.02;89.41
57600;BME280;43426;43.594;24.334;2023-02-18T01:37:31;101701.97;;;0.01;89.46
57600;BME280;43426;43.594;24.334;2023-02-18T01:39:57;101723.22;;;0.19;87.78
57600;BME280;43426;43.594;24.334;2023-02-18T01:42:25;101727.91;;;-0.04;86.58
57600;BME280;43426;43.594;24.334;2023-02-18T01:44:52;101740.00;;;-0.16;87.46
57600;BME280;43426;43.594;24.334;2023-02-18T01:47:18;101715.94;;;-0.13;88.76
57600;BME280;43426;43.594;24.334;2023-02-18T01:49:46;101689.91;;;-0.40;89.12
57600;BME280;43426;43.594;24.334;2023-02-18T01:52:25;101732.34;;;-0.22;89.71
57600;BME280;43426;43.594;24.334;2023-02-18T01:54:55;101715.81;;;-0.27;90.94
57600;BME280;43426;43.594;24.334;2023-02-18T01:57:30;101692.88;;;-0.28;90.50
57600;BME280;43426;43.594;24.334;2023-02-18T01:59:59;101708.88;;;-0.12;90.01
57600;BME280;43426;43.594;24.334;2023-02-18T02:02:28;101700.28;;;-0.18;90.35
57600;BME280;43426;43.594;24.334;2023-02-18T02:04:54;101695.13;;;-0.21;91.11
57600;BME280;43426;43.594;24.334;2023-02-18T02:07:21;101717.19;;;-0.38;88.85
57600;BME280;43426;43.594;24.334;2023-02-18T02:09:49;101696.44;;;-0.83;89.29
57600;BME280;43426;43.594;24.334;2023-02-18T02:20:10;101722.50;;;-0.74;92.69
57600;BME280;43426;43.594;24.334;2023-02-18T02:26:02;101720.66;;;-0.55;92.45
57600;BME280;43426;43.594;24.334;2023-02-18T02:36:38;101704.47;;;-0.48;93.54
57600;BME280;43426;43.594;24.334;2023-02-18T02:39:20;101687.47;;;-0.44;93.84
57600;BME280;43426;43.594;24.334;2023-02-18T02:42:03;101670.47;;;-0.58;93.52
57600;BME280;43426;43.594;24.334;2023-02-18T02:44:44;101677.31;;;-0.36;92.69
57600;BME280;43426;43.594;24.334;2023-02-18T02:47:20;101680.81;;;-0.53;92.59
57600;BME280;43426;43.594;24.334;2023-02-18T02:52:29;101704.47;;;-0.31;92.78
57600;BME280;43426;43.594;24.334;2023-02-18T02:54:55;101698.88;;;-0.25;92.55
57600;BME280;43426;43.594;24.334;2023-02-18T02:59:51;101648.81;;;-0.48;92.32
57600;BME280;43426;43.594;24.334;2023-02-18T03:05:28;101710.34;;;-0.07;91.65
57600;BME280;43426;43.594;24.334;2023-02-18T03:16:43;101708.09;;;0.03;90.49
57600;BME280;43426;43.594;24.334;2023-02-18T03:19:21;101721.50;;;0.00;90.32
57600;BME280;43426;43.594;24.334;2023-02-18T03:22:11;101696.22;;;-0.25;92.30
57600;BME280;43426;43.594;24.334;2023-02-18T03:24:40;101711.84;;;-0.01;92.03
57600;BME280;43426;43.594;24.334;2023-02-18T03:27:16;101714.94;;;0.07;92.22
57600;BME280;43426;43.594;24.334;2023-02-18T03:29:45;101722.50;;;0.15;91.99
57600;BME280;43426;43.594;24.334;2023-02-18T03:32:18;101722.66;;;0.12;92.54
57600;BME280;43426;43.594;24.334;2023-02-18T03:34:48;101710.19;;;0.14;93.27
57600;BME280;43426;43.594;24.334;2023-02-18T03:37:16;101706.94;;;0.25;92.23
57600;BME280;43426;43.594;24.334;2023-02-18T03:39:45;101711.97;;;0.31;92.14
57600;BME280;43426;43.594;24.334;2023-02-18T03:42:14;101715.81;;;0.41;92.35
57600;BME280;43426;43.594;24.334;2023-02-18T03:44:39;101707.69;;;0.44;91.81
57600;BME280;43426;43.594;24.334;2023-02-18T03:47:05;101715.09;;;0.55;91.29
57600;BME280;43426;43.594;24.334;2023-02-18T03:49:30;101724.59;;;0.43;92.15
57600;BME280;43426;43.594;24.334;2023-02-18T03:51:55;101720.53;;;0.36;92.80
57600;BME280;43426;43.594;24.334;2023-02-18T03:54:21;101720.53;;;0.36;93.18
57600;BME280;43426;43.594;24.334;2023-02-18T03:56:46;101723.19;;;0.36;93.00
57600;BME280;43426;43.594;24.334;2023-02-18T03:59:12;101739.56;;;0.44;93.20
57600;BME280;43426;43.594;24.334;2023-02-18T04:01:38;101715.66;;;0.44;93.22
57600;BME280;43426;43.594;24.334;2023-02-18T04:04:03;101714.97;;;0.58;92.38
57600;BME280;43426;43.594;24.334;2023-02-18T04:06:29;101721.75;;;0.80;90.42
57600;BME280;43426;43.594;24.334;2023-02-18T04:08:55;101700.53;;;0.46;91.11
57600;BME280;43426;43.594;24.334;2023-02-18T04:11:20;101714.97;;;0.58;91.71
57600;BME280;43426;43.594;24.334;2023-02-18T04:13:46;101705.19;;;0.59;92.29
57600;BME280;43426;43.594;24.334;2023-02-18T04:16:13;101699.78;;;0.60;92.61
57600;BME280;43426;43.594;24.334;2023-02-18T04:18:39;101700.97;;;0.55;93.00
57600;BME280;43426;43.594;24.334;2023-02-18T04:21:04;101677.56;;;0.45;92.71
57600;BME280;43426;43.594;24.334;2023-02-18T04:23:30;101661.97;;;0.55;92.69
57600;BME280;43426;43.594;24.334;2023-02-18T04:25:55;101666.22;;;0.75;91.05
57600;BME280;43426;43.594;24.334;2023-02-18T04:28:21;101682.16;;;0.91;90.40
57600;BME280;43426;43.594;24.334;2023-02-18T04:30:47;101662.63;;;0.76;91.33
57600;BME280;43426;43.594;24.334;2023-02-18T04:33:12;101668.97;;;0.90;91.84
57600;BME280;43426;43.594;24.334;2023-02-18T04:35:38;101638.03;;;0.73;91.99
57600;BME280;43426;43.594;24.334;2023-02-18T04:38:08;101658.75;;;0.98;92.35
57600;BME280;43426;43.594;24.334;2023-02-18T04:40:34;101639.56;;;0.77;92.21
57600;BME280;43426;43.594;24.334;2023-02-18T04:43:00;101664.25;;;0.95;92.44
57600;BME280;43426;43.594;24.334;2023-02-18T04:45:26;101640.44;;;0.93;92.23
57600;BME280;43426;43.594;24.334;2023-02-18T04:47:52;101629.44;;;1.15;91.82
57600;BME280;43426;43.594;24.334;2023-02-18T04:50:18;101618.91;;;1.44;90.02
57600;BME280;43426;43.594;24.334;2023-02-18T04:52:44;101645.59;;;1.73;89.75
57600;BME280;43426;43.594;24.334;2023-02-18T04:55:09;101585.25;;;1.29;89.58
57600;BME280;43426;43.594;24.334;2023-02-18T04:57:35;101627.84;;;1.43;91.32
57600;BME280;43426;43.594;24.334;2023-02-18T05:00:00;101604.91;;;1.26;92.13
57600;BME280;43426;43.594;24.334;2023-02-18T05:02:27;101624.84;;;1.64;92.27
57600;BME280;43426;43.594;24.334;2023-02-18T05:04:53;101606.16;;;1.65;92.19
57600;BME280;43426;43.594;24.334;2023-02-18T05:07:18;101627.78;;;2.04;90.91
57600;BME280;43426;43.594;24.334;2023-02-18T05:09:46;101627.47;;;2.52;88.60
57600;BME280;43426;43.594;24.334;2023-02-18T05:12:12;101617.91;;;2.77;86.13
57600;BME280;43426;43.594;24.334;2023-02-18T05:14:37;101598.47;;;2.89;84.41
57600;BME280;43426;43.594;24.334;2023-02-18T05:17:03;101618.06;;;3.30;82.02
57600;BME280;43426;43.594;24.334;2023-02-18T05:19:28;101636.91;;;3.67;80.36
57600;BME280;43426;43.594;24.334;2023-02-18T05:21:54;101625.72;;;3.87;78.96
57600;BME280;43426;43.594;24.334;2023-02-18T05:24:19;101624.34;;;4.20;77.13
57600;BME280;43426;43.594;24.334;2023-02-18T05:26:44;101610.88;;;4.35;76.10
57600;BME280;43426;43.594;24.334;2023-02-18T05:29:10;101601.88;;;4.36;75.65
57600;BME280;43426;43.594;24.334;2023-02-18T05:31:35;101626.97;;;4.59;74.94
57600;BME280;43426;43.594;24.334;2023-02-18T05:34:02;101625.03;;;4.74;74.33
57600;BME280;43426;43.594;24.334;2023-02-18T05:36:28;101625.72;;;4.89;73.59
57600;BME280;43426;43.594;24.334;2023-02-18T05:38:53;101620.09;;;5.05;73.01
57600;BME280;43426;43.594;24.334;2023-02-18T05:41:18;101581.59;;;5.19;72.57
57600;BME280;43426;43.594;24.334;2023-02-18T05:43:44;101616.28;;;5.20;73.04
57600;BME280;43426;43.594;24.334;2023-02-18T05:46:28;101610.34;;;5.28;72.90
57600;BME280;43426;43.594;24.334;2023-02-18T05:48:54;101618.50;;;5.26;72.58
57600;BME280;43426;43.594;24.334;2023-02-18T05:51:19;101614.00;;;5.27;72.64
57600;BME280;43426;43.594;24.334;2023-02-18T05:53:48;101628.06;;;5.42;72.61
57600;BME280;43426;43.594;24.334;2023-02-18T05:56:13;101626.44;;;5.63;70.70
57600;BME280;43426;43.594;24.334;2023-02-18T05:58:38;101621.38;;;5.83;69.91
57600;BME280;43426;43.594;24.334;2023-02-18T06:01:04;101599.50;;;6.01;68.27
57600;BME280;43426;43.594;24.334;2023-02-18T06:03:29;101628.41;;;6.31;67.44
57600;BME280;43426;43.594;24.334;2023-02-18T06:05:55;101577.97;;;6.25;66.65
57600;BME280;43426;43.594;24.334;2023-02-18T06:08:20;101632.88;;;6.64;66.24
57600;BME280;43426;43.594;24.334;2023-02-18T06:10:46;101622.91;;;6.67;65.24
57600;BME280;43426;43.594;24.334;2023-02-18T06:13:14;101623.16;;;6.63;65.09
57600;BME280;43426;43.594;24.334;2023-02-18T06:15:40;101619.06;;;6.92;64.19
57600;BME280;43426;43.594;24.334;2023-02-18T06:18:05;101622.72;;;7.02;64.02
57600;BME280;43426;43.594;24.334;2023-02-18T06:20:31;101618.91;;;7.16;63.56
57600;BME280;43426;43.594;24.334;2023-02-18T06:22:57;101600.19;;;7.26;62.92
57600;BME280;43426;43.594;24.334;2023-02-18T06:25:22;101560.13;;;7.02;63.27
57600;BME280;43426;43.594;24.334;2023-02-18T06:27:48;101613.91;;;7.44;63.33
57600;BME280;43426;43.594;24.334;2023-02-18T06:30:15;101608.41;;;7.45;63.32
57600;BME280;43426;43.594;24.334;2023-02-18T06:32:41;101590.19;;;7.49;62.34
57600;BME280;43426;43.594;24.334;2023-02-18T06:35:06;101612.56;;;7.71;62.01
57600;BME280;43426;43.594;24.334;2023-02-18T06:37:32;101617.78;;;7.93;61.82
57600;BME280;43426;43.594;24.334;2023-02-18T06:39:58;101613.00;;;7.97;61.89
57600;BME280;43426;43.594;24.334;2023-02-18T06:42:23;101622.44;;;7.91;62.42
57600;BME280;43426;43.594;24.334;2023-02-18T06:44:48;101612.25;;;7.85;63.14
57600;BME280;43426;43.594;24.334;2023-02-18T06:47:14;101617.00;;;8.02;62.57
57600;BME280;43426;43.594;24.334;2023-02-18T06:49:39;101625.66;;;8.06;62.45
57600;BME280;43426;43.594;24.334;2023-02-18T06:52:05;101598.78;;;8.06;62.58
57600;BME280;43426;43.594;24.334;2023-02-18T06:54:32;101594.19;;;8.28;62.29
57600;BME280;43426;43.594;24.334;2023-02-18T06:56:57;101594.13;;;8.39;61.80
57600;BME280;43426;43.594;24.334;2023-02-18T06:59:23;101597.75;;;8.59;60.84
57600;BME280;43426;43.594;24.334;2023-02-18T07:01:48;101600.75;;;8.76;60.78
57600;BME280;43426;43.594;24.334;2023-02-18T07:04:13;101606.47;;;8.92;59.45
57600;BME280;43426;43.594;24.334;2023-02-18T07:06:39;101597.97;;;9.26;59.06
57600;BME280;43426;43.594;24.334;2023-02-18T07:09:04;101581.84;;;9.56;57.44
57600;BME280;43426;43.594;24.334;2023-02-18T07:11:30;101595.41;;;9.83;56.55
57600;BME280;43426;43.594;24.334;2023-02-18T07:13:55;101611.66;;;10.11;55.94
57600;BME280;43426;43.594;24.334;2023-02-18T07:16:21;101605.34;;;10.30;55.28
57600;BME280;43426;43.594;24.334;2023-02-18T07:18:48;101600.47;;;10.44;55.92
57600;BME280;43426;43.594;24.334;2023-02-18T07:21:13;101580.91;;;10.42;54.95
57600;BME280;43426;43.594;24.334;2023-02-18T07:23:38;101627.50;;;10.89;54.61
57600;BME280;43426;43.594;24.334;2023-02-18T07:26:11;101620.22;;;11.36;52.31
57600;BME280;43426;43.594;24.334;2023-02-18T07:28:37;101612.38;;;11.43;52.82
57600;BME280;43426;43.594;24.334;2023-02-18T07:31:04;101619.75;;;11.58;52.42
57600;BME280;43426;43.594;24.334;2023-02-18T07:33:29;101616.72;;;11.80;51.83
57600;BME280;43426;43.594;24.334;2023-02-18T07:35:56;101607.19;;;11.93;51.47
57600;BME280;43426;43.594;24.334;2023-02-18T07:38:23;101601.72;;;12.03;52.07
57600;BME280;43426;43.594;24.334;2023-02-18T07:40:49;101591.03;;;12.02;53.47
57600;BME280;43426;43.594;24.334;2023-02-18T07:43:14;101609.22;;;12.18;49.09
57600;BME280;43426;43.594;24.334;2023-02-18T07:45:40;101608.03;;;12.47;47.73
57600;BME280;43426;43.594;24.334;2023-02-18T07:48:06;101595.97;;;12.41;47.51
57600;BME280;43426;43.594;24.334;2023-02-18T07:50:31;101617.50;;;12.51;47.67
57600;BME280;43426;43.594;24.334;2023-02-18T07:53:03;101614.63;;;12.52;48.83
57600;BME280;43426;43.594;24.334;2023-02-18T07:55:30;101623.59;;;12.53;48.86
57600;BME280;43426;43.594;24.334;2023-02-18T08:00:43;101623.44;;;12.54;48.83
57600;BME280;43426;43.594;24.334;2023-02-18T08:03:09;101609.19;;;12.44;48.51
57600;BME280;43426;43.594;24.334;2023-02-18T08:05:34;101612.06;;;12.42;47.78
57600;BME280;43426;43.594;24.334;2023-02-18T08:08:00;101619.19;;;12.43;47.92
57600;BME280;43426;43.594;24.334;2023-02-18T08:10:25;101602.19;;;12.33;48.23
57600;BME280;43426;43.594;24.334;2023-02-18T08:12:51;101602.41;;;12.40;48.01
57600;BME280;43426;43.594;24.334;2023-02-18T08:15:16;101595.47;;;12.46;48.25
57600;BME280;43426;43.594;24.334;2023-02-18T08:17:42;101597.81;;;12.40;48.70
57600;BME280;43426;43.594;24.334;2023-02-18T08:20:07;101610.03;;;12.44;48.86
57600;BME280;43426;43.594;24.334;2023-02-18T08:22:33;101617.34;;;12.52;49.33
57600;BME280;43426;43.594;24.334;2023-02-18T08:25:01;101616.53;;;12.60;49.75
57600;BME280;43426;43.594;24.334;2023-02-18T08:27:27;101616.03;;;12.65;49.67
57600;BME280;43426;43.594;24.334;2023-02-18T08:29:55;101618.94;;;12.71;49.35
57600;BME280;43426;43.594;24.334;2023-02-18T08:32:20;101593.72;;;12.71;49.35
57600;BME280;43426;43.594;24.334;2023-02-18T08:34:46;101593.06;;;12.77;49.58
57600;BME280;43426;43.594;24.334;2023-02-18T08:37:11;101613.22;;;12.83;49.49
57600;BME280;43426;43.594;24.334;2023-02-18T08:39:38;101586.94;;;12.67;49.96
57600;BME280;43426;43.594;24.334;2023-02-18T08:42:04;101610.03;;;12.87;48.80
57600;BME280;43426;43.594;24.334;2023-02-18T08:44:29;101616.50;;;12.94;48.68
57600;BME280;43426;43.594;24.334;2023-02-18T08:46:55;101622.06;;;13.01;48.22
57600;BME280;43426;43.594;24.334;2023-02-18T08:49:20;101615.00;;;13.08;48.45
57600;BME280;43426;43.594;24.334;2023-02-18T08:51:49;101612.28;;;13.25;48.54
57600;BME280;43426;43.594;24.334;2023-02-18T08:54:16;101568.06;;;13.08;47.17
57600;BME280;43426;43.594;24.334;2023-02-18T08:56:41;101601.16;;;13.28;48.31
57600;BME280;43426;43.594;24.334;2023-02-18T08:59:06;101618.13;;;13.47;47.84
57600;BME280;43426;43.594;24.334;2023-02-18T09:01:32;101611.00;;;13.54;47.13
57600;BME280;43426;43.594;24.334;2023-02-18T09:03:57;101598.75;;;13.33;46.94
57600;BME280;43426;43.594;24.334;2023-02-18T09:06:23;101641.00;;;13.52;47.12
57600;BME280;43426;43.594;24.334;2023-02-18T09:08:48;101641.69;;;13.54;47.71
57600;BME280;43426;43.594;24.334;2023-02-18T09:11:14;101612.03;;;13.36;47.71
57600;BME280;43426;43.594;24.334;2023-02-18T09:13:40;101643.34;;;13.47;47.51
57600;BME280;43426;43.594;24.334;2023-02-18T09:16:07;101624.00;;;13.25;47.98
57600;BME280;43426;43.594;24.334;2023-02-18T09:18:33;101643.81;;;13.34;48.09
57600;BME280;43426;43.594;24.334;2023-02-18T09:21:03;101627.88;;;13.15;47.82
57600;BME280;43426;43.594;24.334;2023-02-18T09:23:31;101599.72;;;12.91;48.11
57600;BME280;43426;43.594;24.334;2023-02-18T09:25:58;101599.72;;;12.91;48.34
57600;BME280;43426;43.594;24.334;2023-02-18T09:28:24;101612.31;;;13.17;48.74
57600;BME280;43426;43.594;24.334;2023-02-18T09:30:52;101584.28;;;12.91;49.07
57600;BME280;43426;43.594;24.334;2023-02-18T09:33:18;101628.25;;;13.28;48.31
57600;BME280;43426;43.594;24.334;2023-02-18T09:35:45;101608.59;;;13.34;47.90
57600;BME280;43426;43.594;24.334;2023-02-18T09:38:14;101588.25;;;13.30;47.34
57600;BME280;43426;43.594;24.334;2023-02-18T09:40:46;101611.69;;;13.39;47.50
57600;BME280;43426;43.594;24.334;2023-02-18T09:45:52;101583.53;;;13.24;46.88
57600;BME280;43426;43.594;24.334;2023-02-18T09:48:21;101576.91;;;13.18;47.00
57600;BME280;43426;43.594;24.334;2023-02-18T09:50:51;101586.22;;;13.16;47.23
57600;BME280;43426;43.594;24.334;2023-02-18T09:53:17;101590.09;;;13.13;47.12
57600;BME280;43426;43.594;24.334;2023-02-18T09:55:44;101602.47;;;13.16;47.31
57600;BME280;43426;43.594;24.334;2023-02-18T09:58:16;101603.66;;;13.21;46.98
57600;BME280;43426;43.594;24.334;2023-02-18T10:00:50;101586.38;;;13.06;46.38
57600;BME280;43426;43.594;24.334;2023-02-18T10:03:19;101621.09;;;13.19;46.35
57600;BME280;43426;43.594;24.334;2023-02-18T10:06:09;101619.41;;;13.26;46.51
57600;BME280;43426;43.594;24.334;2023-02-18T10:08:44;101609.59;;;13.25;46.17
57600;BME280;43426;43.594;24.334;2023-02-18T10:11:17;101610.63;;;13.24;45.61
57600;BME280;43426;43.594;24.334;2023-02-18T10:13:46;101611.28;;;13.26;45.47
57600;BME280;43426;43.594;24.334;2023-02-18T10:16:16;101622.47;;;13.31;45.98
57600;BME280;43426;43.594;24.334;2023-02-18T10:18:45;101620.13;;;13.28;45.44
57600;BME280;43426;43.594;24.334;2023-02-18T10:21:33;101614.19;;;13.33;45.56
57600;BME280;43426;43.594;24.334;2023-02-18T10:24:23;101582.16;;;13.20;45.83
57600;BME280;43426;43.594;24.334;2023-02-18T10:26:49;101597.91;;;13.24;45.17
57600;BME280;43426;43.594;24.334;2023-02-18T10:29:17;101591.97;;;13.21;45.64
57600;BME280;43426;43.594;24.334;2023-02-18T10:31:47;101598.59;;;13.26;45.14
57600;BME280;43426;43.594;24.334;2023-02-18T10:37:08;101590.97;;;13.22;45.38
57600;BME280;43426;43.594;24.334;2023-02-18T10:42:31;101549.97;;;13.08;45.44
57600;BME280;43426;43.594;24.334;2023-02-18T10:50:44;101513.41;;;13.04;45.18
57600;BME280;43426;43.594;24.334;2023-02-18T10:53:15;101554.72;;;13.23;44.91
57600;BME280;43426;43.594;24.334;2023-02-18T10:55:45;101558.09;;;13.25;45.16
57600;BME280;43426;43.594;24.334;2023-02-18T10:58:45;101536.94;;;13.20;44.56
57600;BME280;43426;43.594;24.334;2023-02-18T11:01:20;101514.75;;;13.17;44.70
57600;BME280;43426;43.594;24.334;2023-02-18T11:03:49;101529.50;;;13.31;45.04
57600;BME280;43426;43.594;24.334;2023-02-18T11:06:32;101543.88;;;13.31;44.64
57600;BME280;43426;43.594;24.334;2023-02-18T11:08:58;101516.44;;;13.26;44.55
57600;BME280;43426;43.594;24.334;2023-02-18T11:11:30;101529.66;;;13.37;44.84
57600;BME280;43426;43.594;24.334;2023-02-18T11:13:59;101525.91;;;13.30;44.81
57600;BME280;43426;43.594;24.334;2023-02-18T11:16:45;101502.03;;;13.34;44.17
57600;BME280;43426;43.594;24.334;2023-02-18T11:19:38;101517.63;;;13.56;43.79
57600;BME280;43426;43.594;24.334;2023-02-18T11:22:25;101507.94;;;13.62;43.06
57600;BME280;43426;43.594;24.334;2023-02-18T11:24:58;101452.75;;;13.38;43.70
57600;BME280;43426;43.594;24.334;2023-02-18T11:27:47;101513.00;;;13.73;43.89
57600;BME280;43426;43.594;24.334;2023-02-18T11:32:49;101518.59;;;13.80;43.52
57600;BME280;43426;43.594;24.334;2023-02-18T11:35:23;101511.97;;;13.83;43.68
57600;BME280;43426;43.594;24.334;2023-02-18T11:37:49;101507.75;;;13.80;43.94
57600;BME280;43426;43.594;24.334;2023-02-18T11:40:24;101504.56;;;13.68;44.34
57600;BME280;43426;43.594;24.334;2023-02-18T11:43:03;101521.13;;;13.82;44.56
57600;BME280;43426;43.594;24.334;2023-02-18T11:45:31;101521.47;;;13.78;45.14
57600;BME280;43426;43.594;24.334;2023-02-18T11:48:07;101520.66;;;13.78;45.04
57600;BME280;43426;43.594;24.334;2023-02-18T11:50:34;101520.13;;;13.83;44.57
57600;BME280;43426;43.594;24.334;2023-02-18T11:53:00;101523.19;;;13.79;45.24
57600;BME280;43426;43.594;24.334;2023-02-18T11:55:53;101525.22;;;13.77;45.13
57600;BME280;43426;43.594;24.334;2023-02-18T11:58:19;101479.31;;;13.51;45.94
57600;BME280;43426;43.594;24.334;2023-02-18T12:00:50;101493.91;;;13.67;45.69
57600;BME280;43426;43.594;24.334;2023-02-18T12:05:53;101467.47;;;13.44;46.42
57600;BME280;43426;43.594;24.334;2023-02-18T12:08:23;101491.69;;;13.54;46.86
57600;BME280;43426;43.594;24.334;2023-02-18T12:10:52;101469.00;;;13.47;46.56
57600;BME280;43426;43.594;24.334;2023-02-18T12:13:33;101481.38;;;13.57;46.71
57600;BME280;43426;43.594;24.334;2023-02-18T12:27:02;101479.84;;;13.55;47.89
57600;BME280;43426;43.594;24.334;2023-02-18T12:30:02;101482.56;;;13.55;48.03
57600;BME280;43426;43.594;24.334;2023-02-18T12:32:52;101465.13;;;13.41;47.56
57600;BME280;43426;43.594;24.334;2023-02-18T12:35:42;101480.00;;;13.61;46.88
57600;BME280;43426;43.594;24.334;2023-02-18T12:54:56;101476.72;;;13.83;47.44
57600;BME280;43426;43.594;24.334;2023-02-18T12:57:41;101469.09;;;13.86;46.95
57600;BME280;43426;43.594;24.334;2023-02-18T13:03:16;101475.31;;;13.95;47.44
57600;BME280;43426;43.594;24.334;2023-02-18T13:08:57;101455.97;;;13.98;47.33
57600;BME280;43426;43.594;24.334;2023-02-18T13:11:46;101459.47;;;14.15;46.67
57600;BME280;43426;43.594;24.334;2023-02-18T13:14:51;101440.75;;;13.89;47.24
57600;BME280;43426;43.594;24.334;2023-02-18T13:17:10;101455.19;;;14.21;47.27
57600;BME280;43426;43.594;24.334;2023-02-18T13:19:49;101464.06;;;14.06;47.92
57600;BME280;43426;43.594;24.334;2023-02-18T13:22:19;101459.19;;;14.02;47.76
57600;BME280;43426;43.594;24.334;2023-02-18T13:24:47;101454.28;;;13.97;48.08
57600;BME280;43426;43.594;24.334;2023-02-18T13:27:16;101464.06;;;14.06;48.14
57600;BME280;43426;43.594;24.334;2023-02-18T13:32:35;101451.22;;;14.00;47.84
57600;BME280;43426;43.594;24.334;2023-02-18T13:40:20;101453.47;;;13.88;48.29
57600;BME280;43426;43.594;24.334;2023-02-18T13:42:50;101454.00;;;13.84;48.85
57600;BME280;43426;43.594;24.334;2023-02-18T13:45:25;101473.44;;;13.95;48.84
57600;BME280;43426;43.594;24.334;2023-02-18T13:47:52;101450.94;;;13.87;48.54
57600;BME280;43426;43.594;24.334;2023-02-18T13:50:22;101475.78;;;14.07;48.66
57600;BME280;43426;43.594;24.334;2023-02-18T13:55:45;101468.72;;;13.89;48.76
57600;BME280;43426;43.594;24.334;2023-02-18T13:58:19;101469.91;;;13.87;48.56
57600;BME280;43426;43.594;24.334;2023-02-18T14:01:05;101463.31;;;13.89;48.83
57600;BME280;43426;43.594;24.334;2023-02-18T14:06:16;101440.47;;;13.75;49.31
57600;BME280;43426;43.594;24.334;2023-02-18T14:08:42;101446.91;;;13.74;49.39
57600;BME280;43426;43.594;24.334;2023-02-18T14:13:46;101457.88;;;13.89;48.91
57600;BME280;43426;43.594;24.334;2023-02-18T14:16:13;101432.34;;;13.67;49.18
57600;BME280;43426;43.594;24.334;2023-02-18T14:29:13;101452.66;;;13.79;48.79
57600;BME280;43426;43.594;24.334;2023-02-18T14:31:44;101455.69;;;13.85;48.93
57600;BME280;43426;43.594;24.334;2023-02-18T14:42:46;101454.00;;;13.84;49.63
57600;BME280;43426;43.594;24.334;2023-02-18T14:48:51;101447.59;;;13.76;49.88
57600;BME280;43426;43.594;24.334;2023-02-18T14:51:23;101439.78;;;13.73;49.76
57600;BME280;43426;43.594;24.334;2023-02-18T14:53:50;101444.22;;;13.66;49.48
57600;BME280;43426;43.594;24.334;2023-02-18T14:56:18;101420.72;;;13.50;49.71
57600;BME280;43426;43.594;24.334;2023-02-18T14:58:57;101415.47;;;13.49;49.87
57600;BME280;43426;43.594;24.334;2023-02-18T15:01:31;101440.50;;;13.59;49.96
57600;BME280;43426;43.594;24.334;2023-02-18T15:03:57;101430.03;;;13.48;49.72
57600;BME280;43426;43.594;24.334;2023-02-18T15:08:59;101417.81;;;13.52;48.98